ソウル/仁川 の空港の天気 - METARとTAF

仁川国際空港 ( RKSI / ICN ) - 韓国 仁川広域市 (ソウル特別市近郊)
飛行場実況気象(Metar)
観測時間07/15 21:30 KST (07/15 12:30 UTC)
風向・風速西北西 3m/s
視程10km以上
天気現象
なし
気温21℃
湿度73%
気圧1005hPa
METARRKSI 151230Z 29005KT CAVOK 21/16 Q1005 NOSIG
過去の天気等 Google飛行場航空写真 Wunderground天気予報

過去48時間のMETAR

飛行場予報(TAF)
発表時間: 7/15 20:00 KST (7/15 11:00 UTC)
予報対象時間: 15日21時 KST ~ 17日3時 KST
風向・風速西北西 5m/s
視程10km以上
なし
16日3時 KST ~ 16日4時 KST に徐々に
風向・風速北 3m/s
視程10km以上
全天の4割程度の雲 雲底高度 1220m
16日8時 KST ~ 16日9時 KST に徐々に
風向・風速南南西 3m/s
16日11時 KST ~ 16日12時 KST に徐々に
風向・風速西 5m/s
視程10km以上
なし
16日21時 KST ~ 16日22時 KST に徐々に
風向・風速北北西 4m/s
TAF RKSI 151100Z 1512/1618 29010KT CAVOK TN20/1521Z TX28/1605Z
BECMG 1518/1519 35005KT 9999 SCT040
BECMG 1523/1524 21005KT
BECMG 1602/1603 27010KT CAVOK
BECMG 1612/1613 33007KT